Time;durP1;ratioP1;P1;durP2;ratioP2;P2;SDS_P1;SDS_P2;PMS_P1;PMS_P2;Temp;Humidity;BMP_temperature;BMP_pressure;BME280_temperature;BME280_humidity;BME280_pressure;Samples;Min_cycle;Max_cycle;Signal;HPM_P1;HPM_P2
2024/02/02 00:01:16;;;;;;;4.47;2.13;;;;;;;4.27;80.65;100614.63;5046764;28;20025;-66
2024/02/02 00:03:42;;;;;;;3.45;0.75;;;;;;;4.24;80.65;100607.75;5046786;28;20030;-67
2024/02/02 00:06:08;;;;;;;0.50;0.50;;;;;;;4.22;81.05;100605.13;5046716;28;20025;-66
2024/02/02 00:08:33;;;;;;;3.22;1.15;;;;;;;4.18;81.13;100599.91;5046844;28;20029;-66
2024/02/02 00:10:59;;;;;;;1.15;1.13;;;;;;;4.20;81.50;100593.09;5046830;28;20394;-67
2024/02/02 00:13:24;;;;;;;0.60;0.57;;;;;;;4.20;81.88;100604.22;5028880;28;20061;-67
2024/02/02 00:15:52;;;;;;;2.40;1.80;;;;;;;4.22;81.91;100599.13;5029053;28;20107;-67
2024/02/02 00:18:18;;;;;;;11.02;4.25;;;;;;;4.19;82.10;100587.09;5046676;28;20030;-66
2024/02/02 00:20:43;;;;;;;3.05;1.85;;;;;;;4.19;82.32;100591.34;5028817;28;20037;-67
2024/02/02 00:23:09;;;;;;;1.77;1.35;;;;;;;4.19;82.58;100597.38;5046432;28;20105;-67
2024/02/02 00:25:34;;;;;;;15.77;3.72;;;;;;;4.26;82.69;100600.06;5046496;28;20025;-67
2024/02/02 00:27:59;;;;;;;12.80;2.63;;;;;;;4.27;82.97;100606.94;5046426;28;20031;-66
2024/02/02 00:30:25;;;;;;;4.13;2.25;;;;;;;4.27;83.13;100609.50;5028515;28;20404;-67
2024/02/02 00:32:50;;;;;;;11.32;2.20;;;;;;;4.32;83.43;100613.03;5046481;28;20029;-67
2024/02/02 00:35:15;;;;;;;6.90;1.30;;;;;;;4.32;83.44;100616.47;5046248;28;20032;-67
2024/02/02 00:37:42;;;;;;;4.78;2.10;;;;;;;4.39;83.47;100616.59;5046383;28;20378;-67
2024/02/02 00:40:08;;;;;;;14.50;1.42;;;;;;;4.43;83.48;100626.97;5046278;28;20068;-67
2024/02/02 00:42:35;;;;;;;13.55;1.10;;;;;;;4.45;83.72;100622.75;5028374;28;20021;-67
2024/02/02 00:45:00;;;;;;;2.10;0.70;;;;;;;4.47;83.60;100621.06;5045978;28;20021;-67
2024/02/02 00:47:25;;;;;;;3.72;1.40;;;;;;;4.47;83.60;100623.63;5046116;28;20037;-67
2024/02/02 00:49:51;;;;;;;2.63;2.20;;;;;;;4.51;83.83;100615.97;5028263;28;20062;-67
2024/02/02 00:52:16;;;;;;;2.30;0.75;;;;;;;4.54;83.73;100613.47;5028310;28;20022;-66
2024/02/02 00:54:42;;;;;;;3.33;3.03;;;;;;;4.52;83.87;100608.28;5045748;28;20048;-67
2024/02/02 00:57:07;;;;;;;1.95;1.38;;;;;;;4.59;83.95;100610.16;5045783;28;20132;-66
2024/02/02 00:59:33;;;;;;;12.77;1.05;;;;;;;4.60;84.08;100621.28;5027684;28;20027;-67
2024/02/02 01:01:58;;;;;;;3.03;1.77;;;;;;;4.61;84.30;100615.34;5045898;28;20028;-66
2024/02/02 01:04:23;;;;;;;2.42;0.63;;;;;;;4.66;84.08;100611.16;5045651;28;20112;-68
2024/02/02 01:06:49;;;;;;;4.30;1.38;;;;;;;4.58;84.34;100595.56;5027802;28;20029;-67
2024/02/02 01:09:15;;;;;;;1.35;1.02;;;;;;;4.70;84.34;100605.22;5045923;28;20018;-66
2024/02/02 01:11:40;;;;;;;2.92;1.50;;;;;;;4.69;84.16;100577.78;5027694;28;20190;-67
2024/02/02 01:14:06;;;;;;;4.55;2.00;;;;;;;4.74;84.21;100595.00;5045464;28;20030;-67
2024/02/02 01:16:31;;;;;;;4.32;2.15;;;;;;;4.70;84.38;100594.06;5027737;28;20045;-66
2024/02/02 01:18:56;;;;;;;8.27;1.15;;;;;;;4.68;84.82;100593.19;5045404;28;20482;-67
2024/02/02 01:21:22;;;;;;;6.15;1.17;;;;;;;4.70;84.97;100610.38;5027707;28;20036;-67
2024/02/02 01:23:48;;;;;;;1.05;1.05;;;;;;;4.69;85.06;100616.34;5027509;28;20021;-67
2024/02/02 01:26:14;;;;;;;6.28;2.40;;;;;;;4.70;85.32;100615.50;5045496;28;20033;-66
2024/02/02 01:28:39;;;;;;;3.40;1.67;;;;;;;4.70;85.22;100612.94;5027501;28;20025;-67
2024/02/02 01:31:04;;;;;;;10.32;2.05;;;;;;;4.74;85.42;100615.56;5044450;28;20040;-67
2024/02/02 01:33:30;;;;;;;4.78;2.58;;;;;;;4.70;85.88;100617.19;5045182;28;20040;-67
2024/02/02 01:35:55;;;;;;;4.32;1.67;;;;;;;4.73;86.10;100627.56;5045223;28;20083;-67
2024/02/02 01:38:21;;;;;;;17.25;2.95;;;;;;;4.73;86.01;100624.13;5045337;28;20059;-68
2024/02/02 01:40:46;;;;;;;1.55;1.40;;;;;;;4.76;85.90;100624.19;5027301;28;20033;-68
2024/02/02 01:43:12;;;;;;;17.85;2.95;;;;;;;4.73;86.27;100613.84;5045106;28;20022;-68
2024/02/02 01:45:39;;;;;;;19.35;0.98;;;;;;;4.64;86.42;100610.25;5044780;28;20160;-69
2024/02/02 01:48:05;;;;;;;1.58;0.85;;;;;;;4.61;86.78;100612.75;5045299;28;20025;-68
2024/02/02 01:50:31;;;;;;;1.30;1.20;;;;;;;4.57;87.64;100619.53;5045006;28;20064;-68
2024/02/02 01:52:57;;;;;;;11.18;3.08;;;;;;;4.51;87.91;100611.72;5044891;28;20025;-68
2024/02/02 01:55:22;;;;;;;1.10;0.77;;;;;;;4.47;88.47;100609.94;5044996;28;20021;-68
2024/02/02 01:57:48;;;;;;;2.55;1.08;;;;;;;4.53;88.85;100601.44;5045109;28;20052;-68
2024/02/02 02:00:13;;;;;;;12.63;1.42;;;;;;;4.51;89.18;100613.41;5026558;28;20108;-68
2024/02/02 02:02:39;;;;;;;2.30;1.50;;;;;;;4.53;89.47;100604.91;5044077;28;20049;-67
2024/02/02 02:05:04;;;;;;;3.42;1.08;;;;;;;4.55;89.35;100594.66;5044845;28;20048;-68
2024/02/02 02:07:30;;;;;;;3.80;1.15;;;;;;;4.59;89.46;100606.72;5044795;28;20033;-67
2024/02/02 02:09:55;;;;;;;23.75;4.03;;;;;;;4.64;89.63;100607.69;5027194;28;20072;-68
2024/02/02 02:12:21;;;;;;;1.48;1.05;;;;;;;4.65;89.15;100606.81;5045600;28;20028;-68
2024/02/02 02:14:47;;;;;;;3.25;1.50;;;;;;;4.65;89.58;100600.84;5044486;28;20022;-68
2024/02/02 02:17:12;;;;;;;30.13;2.25;;;;;;;4.62;89.48;100591.34;5027206;28;20025;-67
2024/02/02 02:19:39;;;;;;;1.80;1.70;;;;;;;4.63;89.75;100590.53;5044628;28;20025;-67
2024/02/02 02:22:04;;;;;;;3.42;1.15;;;;;;;4.66;89.99;100588.00;5044826;28;20021;-68
2024/02/02 02:24:30;;;;;;;3.10;1.67;;;;;;;4.63;89.76;100582.81;5044629;28;20571;-68
2024/02/02 02:26:55;;;;;;;6.97;3.05;;;;;;;4.63;90.04;100587.06;5044400;28;20040;-67
2024/02/02 02:29:21;;;;;;;0.93;0.93;;;;;;;4.66;89.69;100584.56;5044691;28;20025;-66
2024/02/02 02:31:55;;;;;;;33.47;2.35;;;;;;;4.66;89.93;100582.88;5026577;28;20448;-67
2024/02/02 02:34:26;;;;;;;3.40;1.45;;;;;;;4.73;89.74;100578.69;5044773;28;20441;-67
2024/02/02 02:36:51;;;;;;;0.45;0.45;;;;;;;4.77;89.43;100574.47;5044724;28;20056;-67
2024/02/02 02:39:17;;;;;;;2.80;2.00;;;;;;;4.74;89.61;100580.44;5044646;28;20017;-67
2024/02/02 02:41:42;;;;;;;2.15;0.70;;;;;;;4.77;89.69;100580.50;5044699;28;20021;-67
2024/02/02 02:44:08;;;;;;;9.45;2.47;;;;;;;4.78;89.45;100578.75;5048276;28;20030;-67
2024/02/02 02:46:33;;;;;;;0.80;0.80;;;;;;;4.78;89.56;100571.03;5048288;28;20112;-67
2024/02/02 02:48:59;;;;;;;0.68;0.57;;;;;;;4.82;89.22;100560.84;5030633;28;20053;-67
2024/02/02 02:51:24;;;;;;;2.65;1.58;;;;;;;4.87;88.94;100558.38;5047917;28;20086;-66
2024/02/02 02:53:50;;;;;;;2.17;1.70;;;;;;;4.80;88.92;100552.25;5030426;28;20087;-67
2024/02/02 02:56:15;;;;;;;1.17;0.95;;;;;;;4.85;88.81;100552.31;5048145;28;20057;-68
2024/02/02 02:58:40;;;;;;;1.98;1.88;;;;;;;4.80;88.70;100535.94;5048355;28;20033;-66
2024/02/02 03:01:06;;;;;;;4.78;2.25;;;;;;;4.82;88.45;100540.25;5048039;28;20030;-67
2024/02/02 03:03:31;;;;;;;2.63;1.80;;;;;;;4.82;88.19;100545.41;5048158;28;20026;-68
2024/02/02 03:05:57;;;;;;;1.25;0.82;;;;;;;4.80;88.46;100533.38;5030072;28;20025;-68
2024/02/02 03:08:22;;;;;;;5.85;0.95;;;;;;;4.78;87.82;100532.47;5048066;28;20029;-67
2024/02/02 03:10:47;;;;;;;9.95;3.13;;;;;;;4.78;88.11;100532.47;5048117;28;20032;-67
2024/02/02 03:13:13;;;;;;;0.40;0.40;;;;;;;4.76;87.88;100535.00;5030181;28;20037;-67
2024/02/02 03:15:40;;;;;;;0.50;0.50;;;;;;;4.75;87.92;100534.97;5047631;28;20063;-68
2024/02/02 03:18:05;;;;;;;3.15;1.25;;;;;;;4.74;87.95;100529.00;5030118;28;20028;-67
2024/02/02 03:20:31;;;;;;;0.85;0.70;;;;;;;4.73;87.90;100524.66;5047947;28;20049;-66
2024/02/02 03:22:56;;;;;;;6.47;2.05;;;;;;;4.73;87.96;100521.25;5047921;28;20029;-67
2024/02/02 03:25:22;;;;;;;12.90;1.05;;;;;;;4.73;87.96;100516.94;5047526;28;20080;-67
2024/02/02 03:27:47;;;;;;;1.75;1.15;;;;;;;4.71;88.10;100522.06;5047674;28;20028;-66
2024/02/02 03:30:13;;;;;;;0.50;0.50;;;;;;;4.65;88.25;100518.53;5047405;28;20022;-68
2024/02/02 03:32:39;;;;;;;1.48;1.10;;;;;;;4.63;88.14;100521.09;5047670;28;20018;-68
2024/02/02 03:35:06;;;;;;;19.35;2.78;;;;;;;4.61;88.32;100509.91;5047402;28;20448;-69
2024/02/02 03:37:32;;;;;;;1.85;1.75;;;;;;;4.62;88.71;100509.06;5047517;28;20024;-67
2024/02/02 03:39:58;;;;;;;0.68;0.65;;;;;;;4.65;88.98;100523.69;5047529;28;20276;-68
2024/02/02 03:42:23;;;;;;;7.47;1.60;;;;;;;4.63;89.21;100522.78;5029794;28;20027;-67
2024/02/02 03:44:49;;;;;;;2.80;2.63;;;;;;;4.62;89.20;100529.63;5047105;28;20033;-67
2024/02/02 03:47:14;;;;;;;1.95;1.73;;;;;;;4.63;89.14;100515.94;5047298;28;20093;-67
2024/02/02 03:49:39;;;;;;;13.98;1.00;;;;;;;4.64;89.09;100520.25;5047359;28;20567;-67
2024/02/02 03:52:05;;;;;;;1.15;1.15;;;;;;;4.58;89.04;100515.84;5047287;28;20029;-68
2024/02/02 03:54:31;;;;;;;0.50;0.50;;;;;;;4.66;89.05;100517.69;5046849;28;20027;-67
2024/02/02 03:56:57;;;;;;;18.92;1.20;;;;;;;4.65;88.82;100511.69;5047160;28;20060;-67
2024/02/02 03:59:22;;;;;;;13.73;1.92;;;;;;;4.69;88.88;100510.03;5047222;28;20474;-67
2024/02/02 04:01:47;;;;;;;8.40;1.85;;;;;;;4.69;88.87;100513.47;5046885;28;20025;-67
2024/02/02 04:04:13;;;;;;;7.97;1.90;;;;;;;4.65;88.82;100506.53;5029342;28;20021;-67
2024/02/02 04:06:38;;;;;;;3.13;1.95;;;;;;;4.65;88.75;100505.69;5046928;28;20108;-67
2024/02/02 04:09:04;;;;;;;1.98;1.73;;;;;;;4.68;88.58;100516.88;5029031;28;20025;-67
2024/02/02 04:11:29;;;;;;;6.90;2.45;;;;;;;4.64;88.87;100506.50;5046976;28;20029;-68
2024/02/02 04:13:55;;;;;;;7.45;1.52;;;;;;;4.65;88.81;100495.41;5046723;28;20021;-68
2024/02/02 04:16:20;;;;;;;13.90;2.35;;;;;;;4.65;88.58;100491.09;5028779;28;20096;-68
2024/02/02 04:18:46;;;;;;;28.55;2.00;;;;;;;4.55;88.38;100476.38;5046848;28;20028;-68
2024/02/02 04:21:11;;;;;;;4.43;1.30;;;;;;;4.62;88.50;100496.19;5046566;28;20044;-68
2024/02/02 04:23:36;;;;;;;2.28;1.35;;;;;;;4.58;88.60;100497.84;5029011;28;20034;-67
2024/02/02 04:26:02;;;;;;;9.43;1.75;;;;;;;4.61;88.71;100496.16;5046431;28;20022;-67
2024/02/02 04:28:27;;;;;;;0.88;0.88;;;;;;;4.58;88.67;100486.69;5046684;28;20032;-67
2024/02/02 04:30:53;;;;;;;9.30;1.63;;;;;;;4.57;88.72;100479.81;5046404;28;20025;-67
2024/02/02 04:33:18;;;;;;;7.90;1.73;;;;;;;4.63;88.63;100485.09;5046489;28;20021;-67
2024/02/02 04:35:43;;;;;;;5.07;4.03;;;;;;;4.62;88.76;100480.75;5046364;28;20022;-68
2024/02/02 04:38:09;;;;;;;1.60;1.50;;;;;;;4.58;88.82;100479.00;5046553;28;20482;-68
2024/02/02 04:40:34;;;;;;;14.65;3.10;;;;;;;4.57;89.04;100465.25;5046314;28;20056;-67
2024/02/02 04:43:00;;;;;;;18.67;1.85;;;;;;;4.58;89.17;100468.69;5028701;28;20018;-68
2024/02/02 04:45:25;;;;;;;3.40;2.63;;;;;;;4.57;89.20;100466.94;5045993;28;20022;-68
2024/02/02 04:47:51;;;;;;;3.42;1.45;;;;;;;4.56;89.17;100462.66;5046257;28;20036;-69
2024/02/02 04:50:16;;;;;;;0.75;0.75;;;;;;;4.55;89.19;100460.94;5046271;28;20045;-68
2024/02/02 04:52:42;;;;;;;4.13;2.78;;;;;;;4.55;89.21;100466.09;5028258;28;20017;-69
2024/02/02 04:55:09;;;;;;;5.15;2.45;;;;;;;4.55;89.29;100453.22;5045676;28;20025;-69
2024/02/02 04:57:35;;;;;;;6.30;2.03;;;;;;;4.54;89.42;100454.03;5046231;28;20024;-67
2024/02/02 05:00:00;;;;;;;1.60;1.52;;;;;;;4.52;89.50;100438.59;5045485;28;20049;-67
2024/02/02 05:02:25;;;;;;;1.38;1.25;;;;;;;4.52;89.35;100437.75;5045983;28;20075;-68
2024/02/02 05:04:51;;;;;;;4.93;1.17;;;;;;;4.53;89.21;100422.34;5044953;28;20022;-69
2024/02/02 05:07:17;;;;;;;4.50;1.77;;;;;;;4.52;89.30;100427.47;5044830;28;20032;-68
2024/02/02 05:09:42;;;;;;;3.63;1.00;;;;;;;4.50;89.42;100421.41;5044573;28;20489;-67
2024/02/02 05:12:07;;;;;;;10.70;2.15;;;;;;;4.45;89.47;100417.06;5045104;28;20032;-67
2024/02/02 05:14:33;;;;;;;3.78;0.85;;;;;;;4.45;89.77;100414.50;5027868;28;20025;-67
2024/02/02 05:16:59;;;;;;;5.50;1.85;;;;;;;4.42;90.06;100409.31;5045691;28;20028;-67
2024/02/02 05:19:24;;;;;;;3.28;2.15;;;;;;;4.41;89.99;100404.16;5027841;28;20033;-67
2024/02/02 05:21:49;;;;;;;11.00;1.80;;;;;;;4.37;90.23;100405.78;5027779;28;20017;-67
2024/02/02 05:24:15;;;;;;;17.75;2.50;;;;;;;4.33;90.08;100396.28;5045452;28;20044;-68
2024/02/02 05:26:40;;;;;;;7.18;1.98;;;;;;;4.33;90.04;100394.59;5045528;28;20056;-68
2024/02/02 05:29:05;;;;;;;13.63;1.45;;;;;;;4.29;90.07;100391.94;5045523;28;20048;-68
2024/02/02 05:31:31;;;;;;;5.53;2.28;;;;;;;4.27;89.96;100394.47;5045365;28;20032;-69
2024/02/02 05:33:56;;;;;;;0.50;0.50;;;;;;;4.26;90.26;100402.16;5045387;28;20473;-68
2024/02/02 05:36:21;;;;;;;5.18;3.40;;;;;;;4.26;90.10;100402.16;5045446;28;20017;-67
2024/02/02 05:38:47;;;;;;;4.93;1.80;;;;;;;4.21;90.23;100404.66;5045626;28;20025;-67
2024/02/02 05:41:12;;;;;;;4.15;2.00;;;;;;;4.17;90.07;100390.88;5045211;28;20033;-67
2024/02/02 05:43:38;;;;;;;0.45;0.45;;;;;;;4.09;90.09;100379.59;5045452;28;20025;-67
2024/02/02 05:46:05;;;;;;;0.70;0.70;;;;;;;4.04;90.37;100382.06;5044950;28;20031;-67
2024/02/02 05:48:30;;;;;;;1.20;0.88;;;;;;;4.06;90.57;100385.56;5045093;28;20017;-68
2024/02/02 05:50:56;;;;;;;10.13;1.88;;;;;;;4.03;90.58;100377.78;5045044;28;20071;-64
2024/02/02 05:53:21;;;;;;;1.92;1.52;;;;;;;4.02;91.23;100372.63;5045268;28;20025;-67
2024/02/02 05:55:46;;;;;;;4.40;2.08;;;;;;;3.97;91.09;100370.84;5045011;28;20041;-65
2024/02/02 05:58:12;;;;;;;6.72;1.40;;;;;;;3.93;91.51;100368.19;5027368;28;20093;-71
2024/02/02 06:00:37;;;;;;;2.47;1.75;;;;;;;3.97;91.75;100368.28;5026632;28;20036;-69
2024/02/02 06:03:03;;;;;;;12.13;2.50;;;;;;;3.96;91.96;100361.38;5044167;28;20022;-69
2024/02/02 06:05:32;;;;;;;6.82;1.27;;;;;;;3.95;92.02;100358.78;5044828;28;20034;-69
2024/02/02 06:07:58;;;;;;;0.80;0.80;;;;;;;3.99;92.69;100352.03;5045185;28;20026;-69
2024/02/02 06:10:24;;;;;;;1.42;1.10;;;;;;;3.98;92.58;100353.72;5045216;28;20026;-70
2024/02/02 06:12:50;;;;;;;27.13;2.45;;;;;;;4.01;92.60;100360.63;5027276;28;20040;-69
2024/02/02 06:15:16;;;;;;;0.93;0.93;;;;;;;4.02;92.80;100359.78;5026827;28;20033;-69
2024/02/02 06:17:41;;;;;;;1.75;1.02;;;;;;;4.06;92.92;100361.56;5030390;28;20096;-65
2024/02/02 06:20:07;;;;;;;2.38;2.17;;;;;;;4.03;93.27;100353.78;5049027;28;20028;-72
2024/02/02 06:22:32;;;;;;;3.08;2.17;;;;;;;4.06;93.41;100353.84;5049127;28;20036;-68
2024/02/02 06:24:58;;;;;;;4.60;0.60;;;;;;;4.04;93.40;100338.41;5048617;28;20083;-67
2024/02/02 06:27:25;;;;;;;8.27;2.08;;;;;;;4.04;93.61;100335.00;5048714;28;20508;-68
2024/02/02 06:29:50;;;;;;;2.50;1.50;;;;;;;4.06;93.68;100326.47;5048725;28;20032;-70
2024/02/02 06:32:17;;;;;;;1.75;1.65;;;;;;;4.05;93.64;100321.28;5048694;28;20025;-72
2024/02/02 06:34:43;;;;;;;2.33;1.60;;;;;;;4.02;93.83;100310.97;5048547;28;20112;-74
2024/02/02 06:37:09;;;;;;;0.70;0.70;;;;;;;3.95;93.73;100300.59;5048886;28;20029;-72
2024/02/02 06:39:34;;;;;;;21.17;1.25;;;;;;;3.95;93.76;100310.00;5048600;28;20118;-72
2024/02/02 06:41:59;;;;;;;3.35;3.10;;;;;;;3.90;94.09;100297.06;5048679;28;20036;-73
2024/02/02 06:44:25;;;;;;;9.80;2.30;;;;;;;3.88;94.66;100301.34;5048554;28;20025;-72
2024/02/02 06:46:50;;;;;;;6.45;2.47;;;;;;;3.87;94.61;100299.59;5048392;28;20022;-73
2024/02/02 06:49:15;;;;;;;2.55;1.33;;;;;;;3.80;95.07;100288.34;5048637;28;20018;-72
2024/02/02 06:51:41;;;;;;;0.47;0.47;;;;;;;3.83;95.29;100301.22;5048622;28;20025;-71
2024/02/02 06:54:06;;;;;;;2.45;1.45;;;;;;;3.80;95.89;100295.19;5048604;28;20075;-71
2024/02/02 06:56:45;;;;;;;0.73;0.60;;;;;;;3.83;95.76;100292.69;5030413;28;20463;-71
2024/02/02 06:59:10;;;;;;;0.50;0.50;;;;;;;3.79;96.32;100288.31;5048435;28;20018;-70
2024/02/02 07:01:37;;;;;;;1.00;0.88;;;;;;;3.82;96.09;100291.81;5048224;28;20033;-70
2024/02/02 07:04:11;;;;;;;1.75;0.77;;;;;;;3.81;96.50;100284.94;5048486;28;20052;-70
2024/02/02 07:06:37;;;;;;;7.38;1.13;;;;;;;3.80;96.74;100280.63;5048211;28;20454;-70
2024/02/02 07:09:26;;;;;;;0.57;0.57;;;;;;;3.76;96.79;100257.44;5048271;28;20021;-70
2024/02/02 07:12:04;;;;;;;1.77;1.67;;;;;;;3.75;97.07;100258.28;5048100;28;20048;-71
2024/02/02 07:14:50;;;;;;;4.05;2.28;;;;;;;3.75;97.58;100248.00;5047107;28;20029;-71
2024/02/02 07:17:34;;;;;;;1.17;0.70;;;;;;;3.75;97.73;100241.19;5047746;28;20017;-72
2024/02/02 07:20:01;;;;;;;0.60;0.60;;;;;;;3.75;97.86;100236.06;5030443;28;20029;-72
2024/02/02 07:22:37;;;;;;;0.88;0.88;;;;;;;3.75;98.21;100220.66;5048024;28;20028;-71
2024/02/02 07:25:08;;;;;;;0.77;0.77;;;;;;;3.75;98.39;100219.78;5047972;28;20025;-71
2024/02/02 07:27:51;;;;;;;0.40;0.40;;;;;;;3.75;98.44;100209.50;5047392;28;20053;-72
2024/02/02 07:30:44;;;;;;;0.50;0.50;;;;;;;3.74;98.85;100210.34;5047813;28;20071;-71
2024/02/02 07:33:37;;;;;;;1.48;0.88;;;;;;;3.71;98.99;100206.00;5048094;28;20032;-71
2024/02/02 07:36:04;;;;;;;0.40;0.40;;;;;;;3.66;98.98;100187.97;5047842;28;20022;-71
2024/02/02 07:38:38;;;;;;;1.48;1.38;;;;;;;3.65;99.28;100193.94;5047817;28;20022;-71
2024/02/02 07:41:06;;;;;;;0.70;0.65;;;;;;;3.63;99.40;100182.78;5047711;28;20422;-71
2024/02/02 07:43:33;;;;;;;24.15;1.15;;;;;;;3.61;99.43;100173.34;5047612;28;20083;-71
2024/02/02 07:46:05;;;;;;;0.73;0.73;;;;;;;3.57;99.43;100172.41;5047474;28;20018;-72
2024/02/02 07:48:32;;;;;;;0.50;0.50;;;;;;;3.53;99.87;100163.78;5047684;28;20029;-72
2024/02/02 07:50:57;;;;;;;0.98;0.98;;;;;;;3.49;99.99;100171.41;5047595;28;20101;-71
2024/02/02 07:53:23;;;;;;;1.05;1.02;;;;;;;3.46;99.82;100162.84;5029711;28;20500;-72
2024/02/02 07:55:49;;;;;;;0.40;0.40;;;;;;;3.44;99.92;100156.81;5029303;28;20048;-72
2024/02/02 07:58:16;;;;;;;0.40;0.40;;;;;;;3.39;100.00;100154.97;5047298;28;20025;-71
2024/02/02 08:00:42;;;;;;;0.60;0.60;;;;;;;3.35;100.00;100154.09;5047197;28;20029;-71
2024/02/02 08:03:07;;;;;;;0.45;0.43;;;;;;;3.38;100.00;100166.09;5047221;28;20021;-72
2024/02/02 08:05:39;;;;;;;0.93;0.93;;;;;;;3.38;100.00;100159.28;5047173;28;20023;-71
2024/02/02 08:08:05;;;;;;;;;;;;;;;3.37;99.99;100149.81;5047676;28;20025;-71
2024/02/02 08:10:30;;;;;;;0.65;0.65;;;;;;;3.29;99.94;100148.84;5047045;28;19916;-72
2024/02/02 08:12:56;;;;;;;1.75;0.77;;;;;;;3.22;100.00;100145.31;5047187;28;20100;-71
2024/02/02 08:15:21;;;;;;;0.47;0.47;;;;;;;3.16;99.83;100158.91;5046681;28;20049;-70
2024/02/02 08:17:46;;;;;;;0.40;0.40;;;;;;;3.10;99.65;100153.63;5047095;28;20101;-70
2024/02/02 08:20:13;;;;;;;0.40;0.40;;;;;;;3.00;99.41;100146.63;5047137;28;20028;-70
2024/02/02 08:22:38;;;;;;;0.40;0.40;;;;;;;2.92;99.44;100152.50;5046852;28;20090;-70
2024/02/02 08:25:04;;;;;;;0.40;0.40;;;;;;;2.90;99.70;100149.03;5029014;28;20029;-73
2024/02/02 08:27:29;;;;;;;0.50;0.50;;;;;;;2.81;99.59;100146.28;5046646;28;20028;-71
2024/02/02 08:29:55;;;;;;;1.15;1.05;;;;;;;2.80;99.46;100149.66;5029125;28;20355;-71
2024/02/02 08:32:20;;;;;;;0.40;0.40;;;;;;;2.75;99.39;100146.16;5046584;28;20629;-71
2024/02/02 08:34:46;;;;;;;0.40;0.40;;;;;;;2.71;99.51;100156.38;5028925;28;20021;-70
2024/02/02 08:37:11;;;;;;;0.68;0.68;;;;;;;2.60;99.33;100148.44;5028886;28;20053;-70
2024/02/02 08:39:36;;;;;;;0.40;0.40;;;;;;;2.52;99.30;100149.13;5045678;28;20025;-70
2024/02/02 08:42:08;;;;;;;2.15;2.05;;;;;;;2.45;99.50;100146.44;5046493;28;20263;-70
2024/02/02 08:44:34;;;;;;;0.52;0.52;;;;;;;2.43;99.56;100139.56;5028576;28;20370;-71
2024/02/02 08:46:59;;;;;;;0.40;0.40;;;;;;;2.34;99.85;100112.91;5028519;28;20043;-72
2024/02/02 08:49:41;;;;;;;0.57;0.57;;;;;;;2.39;99.89;100124.94;5046489;28;20077;-71
2024/02/02 08:52:11;;;;;;;1.30;0.95;;;;;;;2.38;100.00;100098.44;5046434;28;20025;-71
2024/02/02 08:54:44;;;;;;;6.28;1.40;;;;;;;2.39;100.00;100092.50;5045876;28;20022;-71
2024/02/02 08:57:47;;;;;;;0.50;0.50;;;;;;;2.41;100.00;100075.44;5045969;28;20076;-71
2024/02/02 09:00:14;;;;;;;0.88;0.88;;;;;;;2.43;100.00;100070.38;5045939;28;20033;-70
2024/02/02 09:02:58;;;;;;;0.65;0.65;;;;;;;2.45;100.00;100072.13;5046255;28;20022;-71
2024/02/02 09:05:28;;;;;;;0.40;0.40;;;;;;;2.46;100.00;100063.59;5028363;28;20095;-71
2024/02/02 09:08:10;;;;;;;0.68;0.68;;;;;;;2.48;100.00;100048.25;5045995;28;20056;-70
2024/02/02 09:10:36;;;;;;;1.52;1.42;;;;;;;2.52;100.00;100056.88;5046082;28;20021;-71
2024/02/02 09:13:02;;;;;;;0.40;0.40;;;;;;;2.53;100.00;100035.53;5046066;28;20030;-71
2024/02/02 09:15:32;;;;;;;0.40;0.40;;;;;;;2.56;100.00;100022.75;5027421;28;20028;-70
2024/02/02 09:17:57;;;;;;;0.98;0.85;;;;;;;2.65;100.00;100012.66;5045855;28;20539;-70
2024/02/02 09:20:43;;;;;;;0.40;0.40;;;;;;;2.68;100.00;100007.63;5045851;28;20029;-70
2024/02/02 09:23:09;;;;;;;0.47;0.47;;;;;;;2.71;100.00;99987.19;5046001;28;20469;-70
2024/02/02 09:25:41;;;;;;;14.05;2.13;;;;;;;2.74;100.00;99973.53;5045694;28;20056;-70
2024/02/02 09:28:29;;;;;;;;;;;;;;;2.87;100.00;99976.28;5046148;28;20017;-70
2024/02/02 09:30:58;;;;;;;0.47;0.47;;;;;;;2.88;100.00;99967.75;5033044;28;19909;-71
2024/02/02 09:33:45;;;;;;;0.40;0.40;;;;;;;2.92;100.00;99962.72;5045613;28;20025;-70
2024/02/02 09:36:11;;;;;;;0.40;0.40;;;;;;;2.91;100.00;99947.28;5045633;28;20037;-69
2024/02/02 09:38:37;;;;;;;0.40;0.40;;;;;;;2.99;100.00;99950.00;5045694;28;20032;-69
2024/02/02 09:41:02;;;;;;;0.47;0.47;;;;;;;3.04;100.00;99950.91;5045720;28;20029;-69
2024/02/02 09:44:06;;;;;;;0.57;0.55;;;;;;;3.07;100.00;99935.56;5045548;28;20307;-69
2024/02/02 09:47:05;;;;;;;0.40;0.40;;;;;;;3.15;100.00;99926.28;5027434;28;20057;-69
2024/02/02 09:49:42;;;;;;;0.57;0.57;;;;;;;3.17;100.00;99928.88;5045573;28;20041;-69
2024/02/02 09:52:31;;;;;;;0.45;0.45;;;;;;;3.23;100.00;99913.56;5045211;28;20025;-69
